sensor_id;sensor_type;location;lat;lon;timestamp;pressure;altitude;pressure_sealevel;temperature;humidity
73518;BME280;61766;60.318;25.044;2023-05-23T00:00:26;101544.79;;;16.87;42.20
73518;BME280;61766;60.318;25.044;2023-05-23T00:02:52;101543.26;;;17.06;41.54
73518;BME280;61766;60.318;25.044;2023-05-23T00:05:18;101541.71;;;17.20;41.37
73518;BME280;61766;60.318;25.044;2023-05-23T00:07:44;101531.73;;;16.87;42.73
73518;BME280;61766;60.318;25.044;2023-05-23T00:10:10;101532.75;;;16.76;42.89
73518;BME280;61766;60.318;25.044;2023-05-23T00:12:35;101533.50;;;16.22;43.14
73518;BME280;61766;60.318;25.044;2023-05-23T00:15:01;101532.25;;;16.65;42.62
73518;BME280;61766;60.318;25.044;2023-05-23T00:17:27;101527.30;;;16.37;42.06
73518;BME280;61766;60.318;25.044;2023-05-23T00:19:53;101528.69;;;16.73;41.69
73518;BME280;61766;60.318;25.044;2023-05-23T00:22:19;101526.32;;;16.58;41.58
73518;BME280;61766;60.318;25.044;2023-05-23T00:24:45;101523.36;;;16.80;41.59
73518;BME280;61766;60.318;25.044;2023-05-23T00:27:11;101520.83;;;16.84;41.38
73518;BME280;61766;60.318;25.044;2023-05-23T00:29:36;101518.83;;;16.53;42.42
73518;BME280;61766;60.318;25.044;2023-05-23T00:32:02;101514.02;;;16.39;42.59
73518;BME280;61766;60.318;25.044;2023-05-23T00:34:28;101511.97;;;16.69;42.61
73518;BME280;61766;60.318;25.044;2023-05-23T00:36:54;101510.95;;;16.25;42.41
73518;BME280;61766;60.318;25.044;2023-05-23T00:39:19;101510.93;;;16.48;42.35
73518;BME280;61766;60.318;25.044;2023-05-23T00:41:46;101507.14;;;16.43;41.91
73518;BME280;61766;60.318;25.044;2023-05-23T00:44:10;101509.24;;;16.47;41.58
73518;BME280;61766;60.318;25.044;2023-05-23T00:46:36;101511.35;;;16.52;41.86
73518;BME280;61766;60.318;25.044;2023-05-23T00:49:01;101508.53;;;16.32;42.06
73518;BME280;61766;60.318;25.044;2023-05-23T00:51:26;101508.87;;;16.28;42.96
73518;BME280;61766;60.318;25.044;2023-05-23T00:53:51;101507.05;;;15.97;43.50
73518;BME280;61766;60.318;25.044;2023-05-23T00:56:16;101501.58;;;16.08;43.03
73518;BME280;61766;60.318;25.044;2023-05-23T00:58:42;101499.75;;;16.32;42.52
73518;BME280;61766;60.318;25.044;2023-05-23T01:01:07;101502.92;;;16.11;43.06
73518;BME280;61766;60.318;25.044;2023-05-23T01:03:32;101503.25;;;16.16;43.15
73518;BME280;61766;60.318;25.044;2023-05-23T01:05:57;101502.90;;;15.99;42.93
73518;BME280;61766;60.318;25.044;2023-05-23T01:08:22;101504.91;;;16.05;42.85
73518;BME280;61766;60.318;25.044;2023-05-23T01:10:47;101505.87;;;16.07;43.11
73518;BME280;61766;60.318;25.044;2023-05-23T01:13:20;101506.75;;;15.96;43.32
73518;BME280;61766;60.318;25.044;2023-05-23T01:15:41;101509.28;;;16.09;43.00
73518;BME280;61766;60.318;25.044;2023-05-23T01:18:07;101510.36;;;15.99;43.35
73518;BME280;61766;60.318;25.044;2023-05-23T01:20:30;101510.60;;;16.13;43.09
73518;BME280;61766;60.318;25.044;2023-05-23T01:23:12;101508.18;;;16.24;42.80
73518;BME280;61766;60.318;25.044;2023-05-23T01:25:27;101508.02;;;16.39;42.90
73518;BME280;61766;60.318;25.044;2023-05-23T01:27:46;101510.75;;;15.90;43.06
73518;BME280;61766;60.318;25.044;2023-05-23T01:30:09;101511.99;;;15.87;42.94
73518;BME280;61766;60.318;25.044;2023-05-23T01:32:32;101508.59;;;16.82;42.44
73518;BME280;61766;60.318;25.044;2023-05-23T01:34:58;101506.74;;;16.49;42.29
73518;BME280;61766;60.318;25.044;2023-05-23T01:37:22;101506.80;;;16.42;42.90
73518;BME280;61766;60.318;25.044;2023-05-23T01:39:47;101510.70;;;15.97;43.69
73518;BME280;61766;60.318;25.044;2023-05-23T01:42:12;101511.14;;;15.93;43.88
73518;BME280;61766;60.318;25.044;2023-05-23T01:44:38;101511.12;;;16.32;43.61
73518;BME280;61766;60.318;25.044;2023-05-23T01:47:03;101512.18;;;16.19;43.25
73518;BME280;61766;60.318;25.044;2023-05-23T01:49:28;101512.65;;;16.40;42.77
73518;BME280;61766;60.318;25.044;2023-05-23T01:51:52;101511.53;;;15.89;42.75
73518;BME280;61766;60.318;25.044;2023-05-23T01:54:17;101510.85;;;16.41;42.38
73518;BME280;61766;60.318;25.044;2023-05-23T01:56:43;101506.37;;;16.48;42.24
73518;BME280;61766;60.318;25.044;2023-05-23T01:59:08;101502.63;;;16.31;42.04
73518;BME280;61766;60.318;25.044;2023-05-23T02:01:33;101498.20;;;16.66;41.87
73518;BME280;61766;60.318;25.044;2023-05-23T02:03:58;101495.86;;;16.55;41.57
73518;BME280;61766;60.318;25.044;2023-05-23T02:06:24;101493.38;;;16.72;41.68
73518;BME280;61766;60.318;25.044;2023-05-23T02:08:49;101492.00;;;16.52;41.80
73518;BME280;61766;60.318;25.044;2023-05-23T02:11:14;101487.94;;;16.32;41.65
73518;BME280;61766;60.318;25.044;2023-05-23T02:13:39;101485.65;;;16.63;41.45
73518;BME280;61766;60.318;25.044;2023-05-23T02:16:05;101485.87;;;16.59;41.55
73518;BME280;61766;60.318;25.044;2023-05-23T02:18:30;101484.91;;;16.63;41.58
73518;BME280;61766;60.318;25.044;2023-05-23T02:20:55;101483.90;;;16.48;41.83
73518;BME280;61766;60.318;25.044;2023-05-23T02:23:20;101481.42;;;16.28;42.24
73518;BME280;61766;60.318;25.044;2023-05-23T02:25:45;101479.72;;;16.74;42.32
73518;BME280;61766;60.318;25.044;2023-05-23T02:28:10;101482.24;;;16.41;42.12
73518;BME280;61766;60.318;25.044;2023-05-23T02:30:35;101482.99;;;16.79;41.42
73518;BME280;61766;60.318;25.044;2023-05-23T02:33:04;101486.51;;;16.44;41.79
73518;BME280;61766;60.318;25.044;2023-05-23T02:35:26;101488.50;;;16.37;41.66
73518;BME280;61766;60.318;25.044;2023-05-23T02:37:51;101486.98;;;16.27;41.79
73518;BME280;61766;60.318;25.044;2023-05-23T02:40:16;101486.35;;;16.39;41.55
73518;BME280;61766;60.318;25.044;2023-05-23T02:42:41;101486.03;;;16.65;41.41
73518;BME280;61766;60.318;25.044;2023-05-23T02:45:07;101485.03;;;16.68;41.35
73518;BME280;61766;60.318;25.044;2023-05-23T02:47:31;101482.43;;;16.69;41.63
73518;BME280;61766;60.318;25.044;2023-05-23T02:49:57;101481.39;;;16.50;41.50
73518;BME280;61766;60.318;25.044;2023-05-23T02:52:23;101481.64;;;16.74;41.50
73518;BME280;61766;60.318;25.044;2023-05-23T02:54:47;101481.33;;;16.82;41.46
73518;BME280;61766;60.318;25.044;2023-05-23T02:57:12;101481.62;;;16.61;41.43
73518;BME280;61766;60.318;25.044;2023-05-23T02:59:37;101481.28;;;16.66;41.35
73518;BME280;61766;60.318;25.044;2023-05-23T03:02:02;101483.09;;;16.73;41.19
73518;BME280;61766;60.318;25.044;2023-05-23T03:04:27;101483.00;;;16.81;41.15
73518;BME280;61766;60.318;25.044;2023-05-23T03:06:52;101482.54;;;16.91;40.97
73518;BME280;61766;60.318;25.044;2023-05-23T03:09:17;101482.83;;;16.65;41.52
73518;BME280;61766;60.318;25.044;2023-05-23T03:11:42;101486.28;;;16.75;41.36
73518;BME280;61766;60.318;25.044;2023-05-23T03:14:08;101484.41;;;16.64;41.53
73518;BME280;61766;60.318;25.044;2023-05-23T03:16:33;101487.80;;;16.79;41.25
73518;BME280;61766;60.318;25.044;2023-05-23T03:18:59;101487.98;;;16.84;41.02
73518;BME280;61766;60.318;25.044;2023-05-23T03:21:24;101487.63;;;16.93;41.09
73518;BME280;61766;60.318;25.044;2023-05-23T03:23:49;101487.60;;;16.97;41.16
73518;BME280;61766;60.318;25.044;2023-05-23T03:26:14;101490.53;;;17.06;41.06
73518;BME280;61766;60.318;25.044;2023-05-23T03:28:39;101490.17;;;17.10;40.93
73518;BME280;61766;60.318;25.044;2023-05-23T03:31:05;101491.27;;;16.89;41.40
73518;BME280;61766;60.318;25.044;2023-05-23T03:33:30;101491.34;;;17.02;41.88
73518;BME280;61766;60.318;25.044;2023-05-23T03:35:55;101490.80;;;16.87;41.85
73518;BME280;61766;60.318;25.044;2023-05-23T03:38:21;101492.23;;;16.94;41.90
73518;BME280;61766;60.318;25.044;2023-05-23T03:40:47;101490.22;;;17.07;41.38
73518;BME280;61766;60.318;25.044;2023-05-23T03:43:12;101489.60;;;16.94;41.39
73518;BME280;61766;60.318;25.044;2023-05-23T03:45:38;101490.24;;;17.00;41.62
73518;BME280;61766;60.318;25.044;2023-05-23T03:48:03;101489.93;;;17.36;41.18
73518;BME280;61766;60.318;25.044;2023-05-23T03:50:29;101489.40;;;17.45;41.32
73518;BME280;61766;60.318;25.044;2023-05-23T03:52:55;101484.51;;;16.92;41.32
73518;BME280;61766;60.318;25.044;2023-05-23T03:55:21;101482.50;;;17.28;41.15
73518;BME280;61766;60.318;25.044;2023-05-23T03:57:47;101477.70;;;17.66;40.93
73518;BME280;61766;60.318;25.044;2023-05-23T04:00:13;101478.09;;;17.67;40.99
73518;BME280;61766;60.318;25.044;2023-05-23T04:02:38;101474.61;;;17.06;41.10
73518;BME280;61766;60.318;25.044;2023-05-23T04:05:05;101473.39;;;17.31;41.10
73518;BME280;61766;60.318;25.044;2023-05-23T04:07:30;101471.91;;;17.24;41.27
73518;BME280;61766;60.318;25.044;2023-05-23T04:09:55;101467.89;;;17.30;40.73
73518;BME280;61766;60.318;25.044;2023-05-23T04:12:21;101467.12;;;17.46;41.06
73518;BME280;61766;60.318;25.044;2023-05-23T04:14:47;101465.98;;;17.39;41.32
73518;BME280;61766;60.318;25.044;2023-05-23T04:17:13;101465.86;;;17.85;41.50
73518;BME280;61766;60.318;25.044;2023-05-23T04:19:38;101465.55;;;16.48;42.67
73518;BME280;61766;60.318;25.044;2023-05-23T04:22:04;101467.36;;;16.98;42.10
73518;BME280;61766;60.318;25.044;2023-05-23T04:24:30;101469.42;;;17.38;42.03
73518;BME280;61766;60.318;25.044;2023-05-23T04:26:55;101469.29;;;17.33;41.46
73518;BME280;61766;60.318;25.044;2023-05-23T04:29:21;101469.04;;;17.90;40.94
73518;BME280;61766;60.318;25.044;2023-05-23T04:31:47;101472.37;;;17.67;40.69
73518;BME280;61766;60.318;25.044;2023-05-23T04:34:12;101475.19;;;18.19;40.96
73518;BME280;61766;60.318;25.044;2023-05-23T04:36:38;101472.88;;;18.17;40.27
73518;BME280;61766;60.318;25.044;2023-05-23T04:39:04;101478.25;;;16.76;42.29
73518;BME280;61766;60.318;25.044;2023-05-23T04:41:29;101475.38;;;17.40;40.19
73518;BME280;61766;60.318;25.044;2023-05-23T04:43:54;101471.87;;;17.62;40.53
73518;BME280;61766;60.318;25.044;2023-05-23T04:46:20;101470.96;;;17.63;40.29
73518;BME280;61766;60.318;25.044;2023-05-23T04:48:46;101469.62;;;17.91;39.71
73518;BME280;61766;60.318;25.044;2023-05-23T04:51:11;101471.28;;;17.04;40.91
73518;BME280;61766;60.318;25.044;2023-05-23T04:53:37;101474.40;;;17.44;40.83
73518;BME280;61766;60.318;25.044;2023-05-23T04:56:03;101471.46;;;17.81;40.10
73518;BME280;61766;60.318;25.044;2023-05-23T04:58:29;101474.79;;;17.54;40.60
73518;BME280;61766;60.318;25.044;2023-05-23T05:00:55;101480.29;;;17.42;40.56
73518;BME280;61766;60.318;25.044;2023-05-23T05:03:21;101478.92;;;17.30;41.35
73518;BME280;61766;60.318;25.044;2023-05-23T05:05:46;101476.91;;;17.56;40.96
73518;BME280;61766;60.318;25.044;2023-05-23T05:08:12;101475.35;;;18.09;40.26
73518;BME280;61766;60.318;25.044;2023-05-23T05:10:39;101471.99;;;18.27;39.65
73518;BME280;61766;60.318;25.044;2023-05-23T05:13:03;101469.79;;;18.32;39.01
73518;BME280;61766;60.318;25.044;2023-05-23T05:15:28;101468.82;;;18.23;39.84
73518;BME280;61766;60.318;25.044;2023-05-23T05:17:54;101471.62;;;17.68;40.43
73518;BME280;61766;60.318;25.044;2023-05-23T05:20:20;101468.26;;;18.02;39.97
73518;BME280;61766;60.318;25.044;2023-05-23T05:22:45;101465.36;;;18.20;39.38
73518;BME280;61766;60.318;25.044;2023-05-23T05:25:11;101463.17;;;18.21;40.05
73518;BME280;61766;60.318;25.044;2023-05-23T05:27:38;101465.85;;;17.81;40.08
73518;BME280;61766;60.318;25.044;2023-05-23T05:30:04;101467.74;;;17.26;40.83
73518;BME280;61766;60.318;25.044;2023-05-23T05:32:29;101463.23;;;17.85;40.34
73518;BME280;61766;60.318;25.044;2023-05-23T05:34:55;101465.19;;;17.55;40.68
73518;BME280;61766;60.318;25.044;2023-05-23T05:37:21;101464.37;;;18.35;40.23
73518;BME280;61766;60.318;25.044;2023-05-23T05:39:46;101465.95;;;18.22;40.56
73518;BME280;61766;60.318;25.044;2023-05-23T05:42:12;101461.16;;;18.28;40.26
73518;BME280;61766;60.318;25.044;2023-05-23T05:44:37;101461.79;;;18.25;41.74
73518;BME280;61766;60.318;25.044;2023-05-23T05:47:03;101460.58;;;18.42;39.58
73518;BME280;61766;60.318;25.044;2023-05-23T05:49:28;101463.79;;;18.15;40.21
73518;BME280;61766;60.318;25.044;2023-05-23T05:51:54;101463.19;;;18.46;40.54
73518;BME280;61766;60.318;25.044;2023-05-23T05:54:20;101464.12;;;18.59;39.96
73518;BME280;61766;60.318;25.044;2023-05-23T05:56:46;101465.96;;;18.04;40.48
73518;BME280;61766;60.318;25.044;2023-05-23T05:59:11;101463.47;;;17.74;40.27
73518;BME280;61766;60.318;25.044;2023-05-23T06:01:36;101459.28;;;18.48;40.03
73518;BME280;61766;60.318;25.044;2023-05-23T06:04:02;101459.65;;;18.67;39.98
73518;BME280;61766;60.318;25.044;2023-05-23T06:06:28;101459.09;;;18.67;38.94
73518;BME280;61766;60.318;25.044;2023-05-23T06:08:54;101455.84;;;19.08;38.71
73518;BME280;61766;60.318;25.044;2023-05-23T06:11:19;101455.17;;;18.67;38.68
73518;BME280;61766;60.318;25.044;2023-05-23T06:13:45;101453.85;;;18.71;38.95
73518;BME280;61766;60.318;25.044;2023-05-23T06:16:11;101450.81;;;19.44;38.23
73518;BME280;61766;60.318;25.044;2023-05-23T06:18:36;101450.18;;;19.68;38.28
73518;BME280;61766;60.318;25.044;2023-05-23T06:21:02;101452.39;;;19.41;37.40
73518;BME280;61766;60.318;25.044;2023-05-23T06:23:28;101452.12;;;19.79;37.49
73518;BME280;61766;60.318;25.044;2023-05-23T06:25:56;101451.41;;;18.94;38.70
73518;BME280;61766;60.318;25.044;2023-05-23T06:28:20;101452.03;;;19.50;38.02
73518;BME280;61766;60.318;25.044;2023-05-23T06:30:45;101454.30;;;19.63;37.34
73518;BME280;61766;60.318;25.044;2023-05-23T06:33:11;101448.30;;;19.07;37.75
73518;BME280;61766;60.318;25.044;2023-05-23T06:35:38;101453.71;;;19.61;36.86
73518;BME280;61766;60.318;25.044;2023-05-23T06:38:02;101452.78;;;19.14;38.61
73518;BME280;61766;60.318;25.044;2023-05-23T06:40:28;101453.52;;;19.60;36.96
73518;BME280;61766;60.318;25.044;2023-05-23T06:42:54;101457.52;;;20.04;36.52
73518;BME280;61766;60.318;25.044;2023-05-23T06:45:20;101457.80;;;19.57;34.78
73518;BME280;61766;60.318;25.044;2023-05-23T06:47:45;101456.44;;;19.50;35.54
73518;BME280;61766;60.318;25.044;2023-05-23T06:50:11;101453.93;;;19.39;35.36
73518;BME280;61766;60.318;25.044;2023-05-23T06:52:37;101447.39;;;20.15;35.40
73518;BME280;61766;60.318;25.044;2023-05-23T06:55:03;101446.68;;;20.18;35.28
73518;BME280;61766;60.318;25.044;2023-05-23T06:57:28;101443.89;;;21.13;35.14
73518;BME280;61766;60.318;25.044;2023-05-23T06:59:54;101445.60;;;20.57;34.09
73518;BME280;61766;60.318;25.044;2023-05-23T07:02:20;101445.66;;;21.21;33.30
73518;BME280;61766;60.318;25.044;2023-05-23T07:04:45;101450.81;;;21.50;32.80
73518;BME280;61766;60.318;25.044;2023-05-23T07:07:11;101448.44;;;21.62;32.37
73518;BME280;61766;60.318;25.044;2023-05-23T07:09:37;101451.41;;;21.46;31.99
73518;BME280;61766;60.318;25.044;2023-05-23T07:12:02;101446.53;;;21.75;32.42
73518;BME280;61766;60.318;25.044;2023-05-23T07:14:28;101445.06;;;21.24;32.89
73518;BME280;61766;60.318;25.044;2023-05-23T07:16:53;101449.30;;;21.90;33.41
73518;BME280;61766;60.318;25.044;2023-05-23T07:19:19;101442.70;;;22.05;31.31
73518;BME280;61766;60.318;25.044;2023-05-23T07:21:45;101442.92;;;22.08;32.01
73518;BME280;61766;60.318;25.044;2023-05-23T07:24:11;101448.16;;;21.80;31.10
73518;BME280;61766;60.318;25.044;2023-05-23T07:26:36;101443.93;;;21.67;31.52
73518;BME280;61766;60.318;25.044;2023-05-23T07:29:02;101449.46;;;21.24;32.67
73518;BME280;61766;60.318;25.044;2023-05-23T07:31:28;101446.07;;;21.67;31.27
73518;BME280;61766;60.318;25.044;2023-05-23T07:33:53;101447.53;;;21.63;30.71
73518;BME280;61766;60.318;25.044;2023-05-23T07:36:19;101444.88;;;22.33;30.69
73518;BME280;61766;60.318;25.044;2023-05-23T07:38:45;101445.52;;;22.45;30.45
73518;BME280;61766;60.318;25.044;2023-05-23T07:41:10;101436.64;;;22.94;29.45
73518;BME280;61766;60.318;25.044;2023-05-23T07:43:36;101440.14;;;23.53;30.08
73518;BME280;61766;60.318;25.044;2023-05-23T07:46:02;101442.00;;;23.61;29.61
73518;BME280;61766;60.318;25.044;2023-05-23T07:48:28;101448.73;;;22.53;29.30
73518;BME280;61766;60.318;25.044;2023-05-23T07:50:53;101439.40;;;22.87;29.90
73518;BME280;61766;60.318;25.044;2023-05-23T07:53:19;101441.36;;;22.32;29.97
73518;BME280;61766;60.318;25.044;2023-05-23T07:55:45;101435.02;;;23.26;30.00
73518;BME280;61766;60.318;25.044;2023-05-23T07:58:10;101435.37;;;23.51;28.80
73518;BME280;61766;60.318;25.044;2023-05-23T08:00:36;101437.55;;;23.79;28.67
73518;BME280;61766;60.318;25.044;2023-05-23T08:03:02;101441.22;;;22.25;30.65
73518;BME280;61766;60.318;25.044;2023-05-23T08:05:27;101442.57;;;22.44;29.55
73518;BME280;61766;60.318;25.044;2023-05-23T08:07:53;101438.13;;;23.19;29.98
73518;BME280;61766;60.318;25.044;2023-05-23T08:10:19;101434.65;;;22.96;29.36
73518;BME280;61766;60.318;25.044;2023-05-23T08:12:45;101436.49;;;23.30;28.58
73518;BME280;61766;60.318;25.044;2023-05-23T08:15:10;101436.53;;;23.24;28.23
73518;BME280;61766;60.318;25.044;2023-05-23T08:17:36;101441.44;;;23.51;28.84
73518;BME280;61766;60.318;25.044;2023-05-23T08:20:01;101442.67;;;23.51;28.49
73518;BME280;61766;60.318;25.044;2023-05-23T08:22:27;101447.96;;;23.61;27.97
73518;BME280;61766;60.318;25.044;2023-05-23T08:24:53;101454.87;;;23.98;28.13
73518;BME280;61766;60.318;25.044;2023-05-23T08:27:19;101460.28;;;24.03;26.92
73518;BME280;61766;60.318;25.044;2023-05-23T08:29:44;101460.17;;;23.99;27.22
73518;BME280;61766;60.318;25.044;2023-05-23T08:32:10;101465.79;;;23.35;27.15
73518;BME280;61766;60.318;25.044;2023-05-23T08:34:36;101462.87;;;23.10;28.18
73518;BME280;61766;60.318;25.044;2023-05-23T08:37:02;101469.04;;;23.33;28.06
73518;BME280;61766;60.318;25.044;2023-05-23T08:39:27;101470.95;;;22.61;28.95
73518;BME280;61766;60.318;25.044;2023-05-23T08:41:53;101469.99;;;22.43;29.49
73518;BME280;61766;60.318;25.044;2023-05-23T08:44:18;101466.56;;;23.18;28.27
73518;BME280;61766;60.318;25.044;2023-05-23T08:46:45;101468.98;;;23.08;27.76
73518;BME280;61766;60.318;25.044;2023-05-23T08:49:09;101475.04;;;23.08;28.99
73518;BME280;61766;60.318;25.044;2023-05-23T08:51:37;101468.92;;;22.85;28.60
73518;BME280;61766;60.318;25.044;2023-05-23T08:54:01;101466.64;;;23.34;28.46
73518;BME280;61766;60.318;25.044;2023-05-23T08:56:27;101463.46;;;23.90;28.58
73518;BME280;61766;60.318;25.044;2023-05-23T08:58:52;101463.74;;;22.90;27.88
73518;BME280;61766;60.318;25.044;2023-05-23T09:01:18;101458.95;;;22.98;28.57
73518;BME280;61766;60.318;25.044;2023-05-23T09:03:43;101460.66;;;23.54;27.68
73518;BME280;61766;60.318;25.044;2023-05-23T09:06:10;101458.55;;;23.15;27.74
73518;BME280;61766;60.318;25.044;2023-05-23T09:08:35;101460.77;;;23.20;27.45
73518;BME280;61766;60.318;25.044;2023-05-23T09:11:01;101459.55;;;23.31;27.86
73518;BME280;61766;60.318;25.044;2023-05-23T09:13:26;101462.39;;;22.76;28.21
73518;BME280;61766;60.318;25.044;2023-05-23T09:16:01;101466.97;;;22.06;29.10
73518;BME280;61766;60.318;25.044;2023-05-23T09:18:17;101467.49;;;21.82;29.43
73518;BME280;61766;60.318;25.044;2023-05-23T09:20:44;101469.04;;;22.21;29.35
73518;BME280;61766;60.318;25.044;2023-05-23T09:23:09;101462.00;;;22.78;29.36
73518;BME280;61766;60.318;25.044;2023-05-23T09:25:37;101472.22;;;20.69;30.57
73518;BME280;61766;60.318;25.044;2023-05-23T09:28:01;101467.59;;;21.80;30.05
73518;BME280;61766;60.318;25.044;2023-05-23T09:30:26;101465.58;;;21.86;29.96
73518;BME280;61766;60.318;25.044;2023-05-23T09:32:58;101457.06;;;23.43;28.98
73518;BME280;61766;60.318;25.044;2023-05-23T09:35:22;101459.36;;;23.12;27.93
73518;BME280;61766;60.318;25.044;2023-05-23T09:37:44;101464.12;;;22.31;29.30
73518;BME280;61766;60.318;25.044;2023-05-23T09:40:10;101463.18;;;22.83;28.72
73518;BME280;61766;60.318;25.044;2023-05-23T09:42:35;101466.54;;;21.57;30.22
73518;BME280;61766;60.318;25.044;2023-05-23T09:45:00;101471.02;;;21.79;30.46
73518;BME280;61766;60.318;25.044;2023-05-23T09:47:25;101472.13;;;22.05;30.44
73518;BME280;61766;60.318;25.044;2023-05-23T09:49:51;101471.04;;;22.19;29.41
73518;BME280;61766;60.318;25.044;2023-05-23T09:52:17;101472.26;;;22.25;29.73
73518;BME280;61766;60.318;25.044;2023-05-23T09:54:43;101469.91;;;22.61;28.88
73518;BME280;61766;60.318;25.044;2023-05-23T09:57:09;101464.38;;;23.41;28.49
73518;BME280;61766;60.318;25.044;2023-05-23T09:59:34;101472.31;;;24.01;27.67
73518;BME280;61766;60.318;25.044;2023-05-23T10:02:02;101468.84;;;23.68;27.85
73518;BME280;61766;60.318;25.044;2023-05-23T10:04:29;101472.39;;;22.96;27.78
73518;BME280;61766;60.318;25.044;2023-05-23T10:06:55;101471.23;;;22.71;27.78
73518;BME280;61766;60.318;25.044;2023-05-23T10:09:18;101468.24;;;23.03;27.84
73518;BME280;61766;60.318;25.044;2023-05-23T10:14:08;101473.79;;;22.93;28.10
73518;BME280;61766;60.318;25.044;2023-05-23T10:16:39;101466.73;;;23.32;27.15
73518;BME280;61766;60.318;25.044;2023-05-23T10:19:05;101472.32;;;23.55;27.66
73518;BME280;61766;60.318;25.044;2023-05-23T10:21:32;101471.27;;;23.12;27.24
73518;BME280;61766;60.318;25.044;2023-05-23T10:23:51;101471.20;;;23.85;26.33
73518;BME280;61766;60.318;25.044;2023-05-23T10:26:17;101471.80;;;24.31;26.00
73518;BME280;61766;60.318;25.044;2023-05-23T10:28:42;101468.53;;;22.98;27.29
73518;BME280;61766;60.318;25.044;2023-05-23T10:31:07;101462.78;;;22.98;27.24
73518;BME280;61766;60.318;25.044;2023-05-23T10:33:42;101470.44;;;23.52;27.14
73518;BME280;61766;60.318;25.044;2023-05-23T10:36:03;101466.65;;;23.67;26.21
73518;BME280;61766;60.318;25.044;2023-05-23T10:38:31;101462.46;;;23.60;26.11
73518;BME280;61766;60.318;25.044;2023-05-23T10:40:57;101461.57;;;23.97;26.41
73518;BME280;61766;60.318;25.044;2023-05-23T10:43:22;101460.59;;;23.51;26.14
73518;BME280;61766;60.318;25.044;2023-05-23T10:45:42;101462.78;;;23.71;25.43
73518;BME280;61766;60.318;25.044;2023-05-23T10:48:19;101463.37;;;24.06;24.73
73518;BME280;61766;60.318;25.044;2023-05-23T10:50:33;101460.85;;;22.88;26.33
73518;BME280;61766;60.318;25.044;2023-05-23T10:52:59;101467.98;;;22.77;26.77
73518;BME280;61766;60.318;25.044;2023-05-23T10:55:24;101461.71;;;23.68;25.07
73518;BME280;61766;60.318;25.044;2023-05-23T11:00:15;101462.88;;;23.96;26.83
73518;BME280;61766;60.318;25.044;2023-05-23T11:02:46;101461.34;;;23.23;26.25
73518;BME280;61766;60.318;25.044;2023-05-23T11:05:17;101456.95;;;23.98;25.06
73518;BME280;61766;60.318;25.044;2023-05-23T11:07:32;101458.30;;;23.41;26.71
73518;BME280;61766;60.318;25.044;2023-05-23T11:10:03;101457.38;;;23.64;25.92
73518;BME280;61766;60.318;25.044;2023-05-23T11:14:52;101456.94;;;23.69;25.22
73518;BME280;61766;60.318;25.044;2023-05-23T11:17:15;101453.22;;;24.32;24.32
73518;BME280;61766;60.318;25.044;2023-05-23T11:22:07;101447.04;;;24.54;24.21
73518;BME280;61766;60.318;25.044;2023-05-23T11:24:47;101452.57;;;24.63;24.92
73518;BME280;61766;60.318;25.044;2023-05-23T11:26:58;101452.12;;;24.47;22.84
73518;BME280;61766;60.318;25.044;2023-05-23T11:29:23;101450.12;;;24.81;23.80
73518;BME280;61766;60.318;25.044;2023-05-23T11:31:49;101458.81;;;24.53;22.52
73518;BME280;61766;60.318;25.044;2023-05-23T11:34:14;101448.39;;;24.91;22.62
73518;BME280;61766;60.318;25.044;2023-05-23T11:36:40;101448.29;;;24.90;23.73
73518;BME280;61766;60.318;25.044;2023-05-23T11:39:05;101445.47;;;24.32;23.65
73518;BME280;61766;60.318;25.044;2023-05-23T11:41:31;101449.52;;;23.72;22.68
73518;BME280;61766;60.318;25.044;2023-05-23T11:43:57;101447.10;;;24.98;22.30
73518;BME280;61766;60.318;25.044;2023-05-23T11:46:22;101449.82;;;24.40;22.24
73518;BME280;61766;60.318;25.044;2023-05-23T11:48:48;101444.89;;;24.97;21.38
73518;BME280;61766;60.318;25.044;2023-05-23T11:51:14;101450.37;;;25.39;19.92
73518;BME280;61766;60.318;25.044;2023-05-23T11:53:40;101455.79;;;24.09;21.29
73518;BME280;61766;60.318;25.044;2023-05-23T11:56:05;101445.79;;;24.40;20.55
73518;BME280;61766;60.318;25.044;2023-05-23T11:58:33;101450.31;;;24.31;21.07
73518;BME280;61766;60.318;25.044;2023-05-23T12:00:59;101445.49;;;24.41;21.04
73518;BME280;61766;60.318;25.044;2023-05-23T12:03:22;101447.97;;;24.21;22.55
73518;BME280;61766;60.318;25.044;2023-05-23T12:05:48;101442.68;;;22.51;22.37
73518;BME280;61766;60.318;25.044;2023-05-23T12:08:13;101450.15;;;22.30;23.19
73518;BME280;61766;60.318;25.044;2023-05-23T12:10:49;101441.26;;;23.01;22.50
73518;BME280;61766;60.318;25.044;2023-05-23T12:13:05;101441.46;;;24.13;21.13
73518;BME280;61766;60.318;25.044;2023-05-23T12:15:30;101443.80;;;23.32;21.87
73518;BME280;61766;60.318;25.044;2023-05-23T12:17:57;101443.40;;;23.49;22.74
73518;BME280;61766;60.318;25.044;2023-05-23T12:20:25;101443.88;;;24.09;23.01
73518;BME280;61766;60.318;25.044;2023-05-23T12:22:48;101450.44;;;23.51;21.85
73518;BME280;61766;60.318;25.044;2023-05-23T12:25:13;101447.58;;;23.15;21.63
73518;BME280;61766;60.318;25.044;2023-05-23T12:27:40;101451.12;;;23.43;21.73
73518;BME280;61766;60.318;25.044;2023-05-23T12:30:06;101445.31;;;22.75;21.96
73518;BME280;61766;60.318;25.044;2023-05-23T12:32:30;101443.69;;;23.93;22.52
73518;BME280;61766;60.318;25.044;2023-05-23T12:34:56;101443.55;;;24.40;21.01
73518;BME280;61766;60.318;25.044;2023-05-23T12:37:22;101450.05;;;22.01;22.94
73518;BME280;61766;60.318;25.044;2023-05-23T12:39:47;101442.41;;;23.32;22.59